Tzoanna Vi — SYHY — position and weather

sailwx.info

Track history (hours):
 
Tides and Currents Weather Stations Pressure Air Temp Water Temp Dewpoint Dewpoint Depression Visibility Wind Speed Wind Dir Waves Ship Positions

Tzoanna Vi

Last reported at 2014-Jul-30 11:25 UTC. Time now 2014-Aug-01 11:58 UTC.
Position N 37°58' E 024°13'.

Length 84 m; draft 5.5 m.

Type: Cargo ship. MMSI: 237991700.

Date/timePositionNaut miles runAvg speedWind from/ knotsBaromVisibWave heightAir tempDewpointWater temp
2014-Jul-30 11:25N 37°58' E 024°13'910.1
2014-Jul-30 10:33N 37°50' E 024°19'10 9.6
2014-Jul-30 09:33N 37°42' E 024°24'9 9.0
2014-Jul-30 08:33N 37°33' E 024°28'9 9.1
2014-Jul-30 07:33N 37°25' E 024°32'9 9.0
2014-Jul-30 06:30N 37°16' E 024°37'1010.1
2014-Jul-30 05:33N 37°07' E 024°42'10 9.9
2014-Jul-30 04:33N 36°58' E 024°47'10 9.7
2014-Jul-30 03:33N 36°50' E 024°52'10 9.6
2014-Jul-30 02:33N 36°41' E 024°56'9 9.5
2014-Jul-30 01:33N 36°32' E 025°02'9 9.3
2014-Jul-30 00:33N 36°25' E 025°08'9 9.4
2014-Jul-29 23:33N 36°17' E 025°15'9 9.4
2014-Jul-29 22:33N 36°09' E 025°21'9 9.3
2014-Jul-29 21:33N 36°01' E 025°28'9 9.3
2014-Jul-29 20:33N 35°54' E 025°34'9 9.1
2014-Jul-29 19:33N 35°46' E 025°41'11 8.7
2014-Jul-29 18:18N 35°37' E 025°48'9 8.5
2014-Jul-29 17:17N 35°30' E 025°54'16 8.3
2014-Jul-29 15:24N 35°17' E 026°05'22 0.7
2014-Jul-28 06:32N 35°36' E 025°51'9 8.1
2014-Jul-28 05:26N 35°43' E 025°45'8 8.0
2014-Jul-28 04:24N 35°50' E 025°38'7 8.1
2014-Jul-28 03:33N 35°55' E 025°33'8 8.0
2014-Jul-28 02:33N 36°02' E 025°27'8 8.0
2014-Jul-28 01:33N 36°08' E 025°21'8 7.9
2014-Jul-28 00:33N 36°15' E 025°16'8 8.0
2014-Jul-27 23:33N 36°21' E 025°11'8 8.4
2014-Jul-27 22:33N 36°28' E 025°05'8 8.1
2014-Jul-27 21:33N 36°35' E 024°59'8 7.9
2014-Jul-27 20:33N 36°43' E 024°56'8 8.2
2014-Jul-27 19:33N 36°50' E 024°51'8 7.7
2014-Jul-27 18:33N 36°57' E 024°48'8 7.6
2014-Jul-27 17:33N 37°04' E 024°44'7 7.5
2014-Jul-27 16:33N 37°11' E 024°40'8 7.7
2014-Jul-27 15:33N 37°18' E 024°36'8 7.8
2014-Jul-27 14:33N 37°25' E 024°33'8 7.7
2014-Jul-27 13:32N 37°32' E 024°28'  
Track history (hours):
 
Tides and Currents Weather Stations Pressure Air Temp Water Temp Dewpoint Dewpoint Depression Visibility Wind Speed Wind Dir Waves Ship Positions

Tzoanna Vi

Last reported at 2014-Jul-30 11:25 UTC. Time now 2014-Aug-01 11:58 UTC.
Position N 37°58' E 024°13'.

Length 84 m; draft 5.5 m.

Type: Cargo ship. MMSI: 237991700.

Date/timePositionNaut miles runAvg speedWind from/ knotsBaromVisibWave heightAir tempDewpointWater temp
2014-Jul-30 11:25N 37°58' E 024°13'910.1
2014-Jul-30 10:33N 37°50' E 024°19'10 9.6
2014-Jul-30 09:33N 37°42' E 024°24'9 9.0
2014-Jul-30 08:33N 37°33' E 024°28'9 9.1
2014-Jul-30 07:33N 37°25' E 024°32'9 9.0
2014-Jul-30 06:30N 37°16' E 024°37'1010.1
2014-Jul-30 05:33N 37°07' E 024°42'10 9.9
2014-Jul-30 04:33N 36°58' E 024°47'10 9.7
2014-Jul-30 03:33N 36°50' E 024°52'10 9.6
2014-Jul-30 02:33N 36°41' E 024°56'9 9.5
2014-Jul-30 01:33N 36°32' E 025°02'9 9.3
2014-Jul-30 00:33N 36°25' E 025°08'9 9.4
2014-Jul-29 23:33N 36°17' E 025°15'9 9.4
2014-Jul-29 22:33N 36°09' E 025°21'9 9.3
2014-Jul-29 21:33N 36°01' E 025°28'9 9.3
2014-Jul-29 20:33N 35°54' E 025°34'9 9.1
2014-Jul-29 19:33N 35°46' E 025°41'11 8.7
2014-Jul-29 18:18N 35°37' E 025°48'9 8.5
2014-Jul-29 17:17N 35°30' E 025°54'16 8.3
2014-Jul-29 15:24N 35°17' E 026°05'22 0.7
2014-Jul-28 06:32N 35°36' E 025°51'9 8.1
2014-Jul-28 05:26N 35°43' E 025°45'8 8.0
2014-Jul-28 04:24N 35°50' E 025°38'7 8.1
2014-Jul-28 03:33N 35°55' E 025°33'8 8.0
2014-Jul-28 02:33N 36°02' E 025°27'8 8.0
2014-Jul-28 01:33N 36°08' E 025°21'8 7.9
2014-Jul-28 00:33N 36°15' E 025°16'8 8.0
2014-Jul-27 23:33N 36°21' E 025°11'8 8.4
2014-Jul-27 22:33N 36°28' E 025°05'8 8.1
2014-Jul-27 21:33N 36°35' E 024°59'8 7.9
2014-Jul-27 20:33N 36°43' E 024°56'8 8.2
2014-Jul-27 19:33N 36°50' E 024°51'8 7.7
2014-Jul-27 18:33N 36°57' E 024°48'8 7.6
2014-Jul-27 17:33N 37°04' E 024°44'7 7.5
2014-Jul-27 16:33N 37°11' E 024°40'8 7.7
2014-Jul-27 15:33N 37°18' E 024°36'8 7.8
2014-Jul-27 14:33N 37°25' E 024°33'8 7.7
2014-Jul-27 13:32N 37°32' E 024°28'  

Dump ship's entire track history